Announcements:The WU maps have been depricated and removed.
Email Mr. Reynolds

Nearby METAR Reports

 

KMIC - Crystal, Minnesota, USA
Distance from station: S 7mi, 16km
Updated: Fri, 10/07/2022 6:53am CDT
Overcast
Overcast
 Wind from N
Wind: N 9 mph , 15 km/h
Temperature: 41°F , 5°C
Wind Chill: 35°F , 2°C
Dew Point: 36°F , 2°C
Humidity: 81%
Barometer: 30.51 inHg , 1033.2 hPa
Clouds: Overcast
Visibility: 10 miles , 16 km
Cloud details: Mostly cloudy 1300 ft
Overcast 3600 ft
2022/10/07 11:53 KMIC 071153Z 35008KT 10SM BKN013 OVC036 05/02 A3051 RMK AO2 SLP339 60004 70004 T00500022 10067 20050 53009
KANE - Anoka-Blaine, Minnesota, USA
Distance from station: SW 16mi, 27km
Updated: Fri, 10/07/2022 6:55am CDT
Overcast
Overcast
 Wind from N
Wind: N 9 mph , 15 km/h
Temperature: 41°F , 5°C
Wind Chill: 35°F , 2°C
Dew Point: 37°F , 3°C
Humidity: 87%
Barometer: 30.52 inHg , 1033.5 hPa
Clouds: Overcast
Visibility: 10 miles , 16 km
Cloud details: Mostly cloudy 1200 ft
Overcast 3900 ft
2022/10/07 11:55 KANE 071155Z 35008KT 10SM BKN012 OVC039 05/03 A3052
KFCM - Flying Cloud-Eden Prairie, Minnesota, USA
Distance from station: NE 17mi, 28km
Updated: Fri, 10/07/2022 7:41am CDT
Overcast
Overcast
 Wind from N
Wind: N 5 mph , 7 km/h
Temperature: 43°F , 6°C
Wind Chill: 40°F , 4°C
Dew Point: 36°F , 2°C
Humidity: 76%
Barometer: 30.52 inHg , 1033.5 hPa
Clouds: Overcast
Visibility: 10 miles , 16 km
Cloud details: Mostly cloudy 1200 ft
Overcast 3600 ft
2022/10/07 12:41 KFCM 071241Z 36004KT 10SM BKN012 OVC036 06/02 A3052 RMK AO2 T00560022
 
KMSP - Minneapolis-St. Paul, Minnesota, USA
Distance from station: NW 16mi, 27km
Updated: Fri, 10/07/2022 7:16am CDT
Overcast
Overcast
 Wind from NNW
Wind: NNW 9 mph , 15 km/h, Gust: 22 mph , 35 km/h
Temperature: 43°F , 6°C
Wind Chill: 38°F , 3°C
Dew Point: 37°F , 3°C
Humidity: 81%
Barometer: 30.52 inHg , 1033.5 hPa
Clouds: Overcast
Visibility: 10 miles , 16 km
Cloud details: Mostly cloudy 1300 ft
Overcast 6000 ft
2022/10/07 12:16 KMSP 071216Z 34008G19KT 280V010 10SM BKN013 OVC060 06/03 A3052 RMK AO2 T00560028
KRST - Rochester, Minnesota, USA
Distance from station: NW 99mi, 159km
Updated: Fri, 10/07/2022 6:54am CDT
Partly cloudy
Partly cloudy
 Wind from NNW
Wind: NNW 6 mph , 9 km/h
Temperature: 34°F , 1°C
Wind Chill: 29°F , -2°C
Dew Point: 30°F , -1°C
Humidity: 87%
Barometer: 30.50 inHg , 1032.8 hPa
Clouds: Partly cloudy
Visibility: 10 miles , 16 km
Cloud details: Partly cloudy 2000 ft
2022/10/07 11:54 KRST 071154Z 33005KT 10SM SCT020 01/M01 A3050 RMK AO2 SLP339 T00111006 10044 20011 53017
KSGS - Fleming/St Paul, Minnesota, USA
Distance from station: W 23mi, 37km
Updated: Fri, 10/07/2022 7:35am CDT
Overcast
Overcast
 Wind from N
Wind: N 6 mph , 9 km/h
Temperature: 43°F , 6°C
Wind Chill: 39°F , 4°C
Dew Point: 37°F , 3°C
Humidity: 81%
Barometer: 30.52 inHg , 1033.5 hPa
Clouds: Overcast
Visibility: 10 miles , 16 km
Cloud details: Mostly cloudy 1300 ft
Overcast 3100 ft
2022/10/07 12:35 KSGS 071235Z AUTO 35005KT 10SM BKN013 OVC031 06/03 A3052 RMK AO2 T00590031
 
KDLH - Duluth, Minnesota, USA
Distance from station: SSW 164mi, 265km
Updated: Fri, 10/07/2022 6:55am CDT
Few Clouds
Few Clouds
 Wind from N
Wind: N 7 mph , 11 km/h
Temperature: 30°F , -1°C
Wind Chill: 23°F , -5°C
Dew Point: 28°F , -2°C
Humidity: 93%
Barometer: 30.51 inHg , 1033.2 hPa
Clouds: Few Clouds
Visibility: 10 miles , 16 km
Cloud details: Few Clouds 200 ft
Few Clouds 2500 ft
2022/10/07 11:55 KDLH 071155Z 35006KT 10SM FEW002 FEW025 M01/M02 A3051 RMK AO2 SLP351 T10111022 10017 21011 53007
KBRD - Brainard, Minnesota, USA
Distance from station: SSE 127mi, 25km
Updated: Fri, 10/07/2022 6:53am CDT
Overcast
Overcast
 Wind from NNE
Wind: NNE 5 mph , 7 km/h
Temperature: 37°F , 3°C
Wind Chill: 33°F , 1°C
Dew Point: 28°F , -2°C
Humidity: 70%
Barometer: 30.55 inHg , 1034.5 hPa
Clouds: Overcast
Visibility: 10 miles , 16 km
Cloud details: Overcast 5000 ft
2022/10/07 11:53 KBRD 071153Z AUTO 03004KT 10SM OVC050 03/M02 A3055 RMK AO2 SLP358 T00281017 10044 20028 53004